createdAt,value
2022-12-07T07:00:05.711Z,100.00
2022-12-07T07:02:32.986Z,100.00
2022-12-07T07:05:00.042Z,100.00
2022-12-07T07:07:27.041Z,100.00
2022-12-07T07:09:55.025Z,100.00
2022-12-07T07:12:22.042Z,100.00
2022-12-07T07:14:48.907Z,100.00
2022-12-07T07:17:16.389Z,100.00
2022-12-07T07:19:43.262Z,100.00
2022-12-07T07:22:10.126Z,100.00
2022-12-07T07:24:36.930Z,100.00
2022-12-07T07:27:03.754Z,100.00
2022-12-07T07:29:30.565Z,100.00
2022-12-07T07:32:00.690Z,100.00
2022-12-07T07:34:31.859Z,100.00
2022-12-07T07:36:58.620Z,100.00
2022-12-07T07:39:25.390Z,100.00
2022-12-07T07:41:52.225Z,100.00
2022-12-07T07:44:28.926Z,100.00
2022-12-07T07:46:58.452Z,100.00
2022-12-07T07:49:25.354Z,100.00
2022-12-07T07:51:52.127Z,100.00
2022-12-07T07:54:19.013Z,100.00
2022-12-07T07:56:45.766Z,100.00
2022-12-07T07:59:12.592Z,100.00
2022-12-07T08:01:39.476Z,100.00
2022-12-07T08:04:06.310Z,100.00
2022-12-07T08:06:33.085Z,100.00
2022-12-07T08:09:00.318Z,100.00
2022-12-07T08:11:27.128Z,100.00
2022-12-07T08:13:53.935Z,100.00
2022-12-07T08:16:20.845Z,100.00
2022-12-07T08:18:47.699Z,100.00
2022-12-07T08:21:16.326Z,100.00
2022-12-07T08:23:43.464Z,100.00
2022-12-07T08:26:12.401Z,100.00
2022-12-07T08:28:40.420Z,100.00
2022-12-07T08:31:16.056Z,100.00
2022-12-07T08:33:43.716Z,100.00
2022-12-07T08:36:13.229Z,100.00
2022-12-07T08:38:44.957Z,100.00
2022-12-07T08:41:18.796Z,100.00
2022-12-07T08:43:45.717Z,100.00
2022-12-07T08:46:46.621Z,100.00
2022-12-07T08:49:19.631Z,100.00
2022-12-07T08:51:46.593Z,100.00
2022-12-07T08:54:17.934Z,100.00
2022-12-07T08:56:46.407Z,100.00
2022-12-07T08:59:16.128Z,100.00
2022-12-07T09:01:43.170Z,100.00
2022-12-07T09:04:10.228Z,100.00
2022-12-07T09:06:37.292Z,100.00
2022-12-07T09:09:04.762Z,100.00
2022-12-07T09:11:31.892Z,100.00
2022-12-07T09:13:58.683Z,100.00
2022-12-07T09:16:25.650Z,100.00
2022-12-07T09:18:52.577Z,100.00
2022-12-07T09:21:19.425Z,100.00
2022-12-07T09:23:46.205Z,100.00
2022-12-07T09:26:13.267Z,100.00
2022-12-07T09:28:40.612Z,100.00
2022-12-07T09:31:24.866Z,100.00
2022-12-07T09:33:57.860Z,100.00
2022-12-07T09:36:25.486Z,99.75
2022-12-07T09:38:52.968Z,99.47
2022-12-07T09:41:20.633Z,99.48
2022-12-07T09:43:48.252Z,98.05
2022-12-07T09:46:20.222Z,97.80
2022-12-07T09:48:51.096Z,97.30
2022-12-07T09:51:24.268Z,96.87
2022-12-07T09:53:53.670Z,99.08
2022-12-07T09:56:21.789Z,100.00
2022-12-07T09:58:50.093Z,98.42
2022-12-07T10:01:20.236Z,96.79
2022-12-07T10:03:52.192Z,93.08
2022-12-07T10:06:19.695Z,93.00
2022-12-07T10:08:46.816Z,91.41
2022-12-07T10:11:15.899Z,89.99
2022-12-07T10:13:50.127Z,89.82
2022-12-07T10:16:26.675Z,88.21
2022-12-07T10:18:53.953Z,89.05
2022-12-07T10:21:28.154Z,86.13
2022-12-07T10:24:06.971Z,84.96
2022-12-07T10:26:47.228Z,84.79
2022-12-07T10:29:21.382Z,84.82
2022-12-07T10:32:01.897Z,84.13
2022-12-07T10:34:29.993Z,84.15
2022-12-07T10:37:17.820Z,84.42
2022-12-07T10:39:49.096Z,84.41
2022-12-07T10:42:23.770Z,84.09
2022-12-07T10:45:07.860Z,84.26
2022-12-07T10:48:07.356Z,82.95
2022-12-07T10:50:55.798Z,82.76
2022-12-07T10:53:39.951Z,82.87
2022-12-07T10:56:15.683Z,82.82
2022-12-07T10:59:09.620Z,83.27
2022-12-07T11:01:48.145Z,82.47
2022-12-07T11:04:39.474Z,80.47
2022-12-07T11:07:09.047Z,79.00
2022-12-07T11:10:07.241Z,76.52
2022-12-07T11:13:03.669Z,73.43
2022-12-07T11:15:44.738Z,71.46
2022-12-07T11:18:20.444Z,69.76
2022-12-07T11:21:07.815Z,67.62
2022-12-07T11:23:53.258Z,67.05
2022-12-07T11:26:28.801Z,66.73
2022-12-07T11:29:24.808Z,65.47
2022-12-07T11:31:56.188Z,65.77
2022-12-07T11:34:35.032Z,64.17
2022-12-07T11:37:06.109Z,63.64
2022-12-07T11:39:40.653Z,62.59
2022-12-07T11:42:16.069Z,62.91
2022-12-07T11:44:57.975Z,62.88
2022-12-07T11:47:46.415Z,62.74
2022-12-07T11:50:25.109Z,61.79
2022-12-07T11:53:12.296Z,58.23
2022-12-07T11:56:38.129Z,58.27
2022-12-07T11:59:16.908Z,57.32
2022-12-07T12:01:57.662Z,57.22
2022-12-07T12:04:35.320Z,57.74
2022-12-07T12:10:15.436Z,60.47
2022-12-07T12:16:21.765Z,63.25
2022-12-07T12:19:26.393Z,64.32
2022-12-07T12:22:11.710Z,62.42
2022-12-07T12:24:41.091Z,62.49
2022-12-07T12:27:10.612Z,63.22
2022-12-07T12:29:41.058Z,63.53
2022-12-07T12:32:37.940Z,62.36
2022-12-07T12:35:38.120Z,63.04
2022-12-07T12:38:26.613Z,62.95
2022-12-07T12:40:54.397Z,62.93
2022-12-07T12:43:53.901Z,60.67
2022-12-07T12:46:34.724Z,59.85
2022-12-07T12:49:16.762Z,58.54
2022-12-07T12:51:48.131Z,58.09
2022-12-07T12:54:24.790Z,58.15
2022-12-07T12:57:00.722Z,58.37
2022-12-07T12:59:29.442Z,58.24
2022-12-07T13:02:11.103Z,55.82
2022-12-07T13:04:53.458Z,56.08
2022-12-07T13:07:55.404Z,54.67
2022-12-07T13:10:24.382Z,54.44
2022-12-07T13:13:16.260Z,54.03
2022-12-07T13:15:51.903Z,53.87
2022-12-07T13:18:28.787Z,53.91
2022-12-07T13:21:10.636Z,54.76
2022-12-07T13:23:46.751Z,54.77
2022-12-07T13:26:23.487Z,55.22
2022-12-07T13:29:07.060Z,55.55
2022-12-07T13:31:33.967Z,55.00
2022-12-07T13:34:02.198Z,55.39
2022-12-07T13:36:36.777Z,54.50
2022-12-07T13:39:25.383Z,53.83
2022-12-07T13:41:57.852Z,53.39
2022-12-07T13:44:29.343Z,53.83
2022-12-07T13:47:02.461Z,55.38
2022-12-07T13:49:32.268Z,56.08
2022-12-07T13:52:32.087Z,57.67
2022-12-07T13:55:05.578Z,59.04
2022-12-07T13:57:36.287Z,60.85
2022-12-07T14:00:06.802Z,62.58
2022-12-07T14:02:39.927Z,63.85
2022-12-07T14:05:24.554Z,64.98
2022-12-07T14:08:00.673Z,65.70
2022-12-07T14:10:30.275Z,66.93
2022-12-07T14:12:58.434Z,68.10
2022-12-07T14:15:29.944Z,69.18
2022-12-07T14:17:57.914Z,69.76
2022-12-07T14:20:37.472Z,69.97
2022-12-07T14:23:11.986Z,70.46
2022-12-07T14:25:51.785Z,70.72
2022-12-07T14:28:31.985Z,70.85
2022-12-07T14:30:59.564Z,71.30
2022-12-07T14:33:26.991Z,71.45
2022-12-07T14:35:56.649Z,71.34
2022-12-07T14:38:23.579Z,71.44
2022-12-07T14:40:50.436Z,71.63
2022-12-07T14:43:19.176Z,71.97
2022-12-07T14:45:46.095Z,71.74
2022-12-07T14:53:56.957Z,72.66
2022-12-07T14:56:25.748Z,73.03
2022-12-07T14:58:52.639Z,73.21
2022-12-07T15:01:19.546Z,72.93
2022-12-07T15:03:46.864Z,74.21
2022-12-07T15:06:19.319Z,74.76
2022-12-07T15:08:46.413Z,74.94
2022-12-07T15:11:15.560Z,74.96
2022-12-07T15:14:00.868Z,75.06
2022-12-07T15:16:33.437Z,75.35
2022-12-07T15:19:30.006Z,78.32
2022-12-07T15:21:58.179Z,76.83
2022-12-07T15:24:25.343Z,76.55
2022-12-07T15:26:53.392Z,77.06
2022-12-07T15:29:23.163Z,77.96
2022-12-07T15:31:56.403Z,79.06
2022-12-07T15:34:33.509Z,79.73
2022-12-07T15:37:06.777Z,80.45
2022-12-07T15:39:33.678Z,81.98
2022-12-07T15:42:00.473Z,81.89
2022-12-07T15:44:45.808Z,81.81
2022-12-07T15:47:12.752Z,82.87
2022-12-07T15:49:39.624Z,83.37
2022-12-07T15:52:06.472Z,83.81
2022-12-07T15:54:36.265Z,84.74
2022-12-07T15:57:03.252Z,85.01
2022-12-07T15:59:30.636Z,85.13
2022-12-07T16:01:58.171Z,85.45
2022-12-07T16:04:25.151Z,85.76
2022-12-07T16:06:52.428Z,85.58
2022-12-07T16:09:20.113Z,85.56
2022-12-07T16:11:47.140Z,86.56
2022-12-07T16:14:14.460Z,86.75
2022-12-07T16:16:41.602Z,87.01
2022-12-07T16:19:09.600Z,87.05
2022-12-07T16:21:36.991Z,87.45
2022-12-07T16:24:04.552Z,87.04
2022-12-07T16:26:31.574Z,86.96
2022-12-07T16:28:58.960Z,88.13
2022-12-07T16:31:27.813Z,89.51
2022-12-07T16:33:57.919Z,90.97
2022-12-07T16:39:13.851Z,91.39
2022-12-07T16:41:40.720Z,92.76
2022-12-07T16:44:10.529Z,92.94
2022-12-07T16:46:38.055Z,93.25
2022-12-07T16:49:05.732Z,93.83
2022-12-07T16:51:34.228Z,94.37
2022-12-07T16:54:01.088Z,94.41
2022-12-07T16:56:30.160Z,94.62
2022-12-07T16:58:59.647Z,95.04
2022-12-07T17:01:29.323Z,95.37
2022-12-07T17:03:58.696Z,95.80
2022-12-07T17:06:30.745Z,95.58
2022-12-07T17:08:58.256Z,95.34
2022-12-07T17:11:27.962Z,95.98
2022-12-07T17:14:14.263Z,96.14
2022-12-07T17:16:41.353Z,97.01
2022-12-07T17:19:11.009Z,96.03
2022-12-07T17:21:39.322Z,96.21
2022-12-07T17:24:08.710Z,95.75
2022-12-07T17:26:36.275Z,96.15
2022-12-07T17:29:05.269Z,96.91
2022-12-07T17:31:33.731Z,97.34
2022-12-07T17:34:00.980Z,98.95
2022-12-07T17:36:32.823Z,100.00
2022-12-07T17:38:59.986Z,100.00
2022-12-07T17:41:47.954Z,100.00
2022-12-07T17:44:17.867Z,100.00
2022-12-07T17:46:45.942Z,100.00
2022-12-07T17:49:13.545Z,100.00
2022-12-07T17:51:58.978Z,100.00
2022-12-07T17:54:25.829Z,100.00
2022-12-07T17:56:52.832Z,100.00
2022-12-07T17:59:19.903Z,100.00
2022-12-07T18:01:47.427Z,100.00
2022-12-07T18:04:14.394Z,100.00
2022-12-07T18:06:41.496Z,100.00
2022-12-07T18:09:09.336Z,100.00
2022-12-07T18:11:36.730Z,100.00
2022-12-07T18:14:04.057Z,100.00
2022-12-07T18:16:35.649Z,100.00
2022-12-07T18:19:04.742Z,100.00
2022-12-07T18:21:31.958Z,100.00
2022-12-07T18:24:04.660Z,100.00
2022-12-07T18:26:33.786Z,100.00
2022-12-07T18:29:01.111Z,100.00
2022-12-07T18:31:29.443Z,100.00
2022-12-07T18:33:57.265Z,100.00
2022-12-07T18:36:24.520Z,100.00
2022-12-07T18:38:51.873Z,100.00
2022-12-07T18:41:19.326Z,100.00
2022-12-07T18:43:46.265Z,100.00
2022-12-07T18:46:19.455Z,100.00
2022-12-07T18:48:47.538Z,100.00
2022-12-07T18:51:15.706Z,100.00
2022-12-07T18:53:43.308Z,100.00
2022-12-07T18:56:21.540Z,100.00
2022-12-07T18:59:15.250Z,100.00
2022-12-07T19:01:43.949Z,100.00
2022-12-07T19:04:11.167Z,100.00
2022-12-07T19:06:38.295Z,100.00
2022-12-07T19:09:06.342Z,100.00
2022-12-07T19:11:52.698Z,100.00
2022-12-07T19:14:27.712Z,100.00
2022-12-07T19:17:02.938Z,100.00
2022-12-07T19:19:34.176Z,100.00
2022-12-07T19:22:01.345Z,100.00
2022-12-07T19:24:29.457Z,100.00
2022-12-07T19:26:59.015Z,100.00
2022-12-07T19:29:28.290Z,100.00
2022-12-07T19:31:55.268Z,100.00
2022-12-07T19:34:22.186Z,100.00
2022-12-07T19:36:49.045Z,100.00
2022-12-07T19:39:16.385Z,100.00
2022-12-07T19:41:44.459Z,100.00
2022-12-07T19:44:17.093Z,100.00
2022-12-07T19:46:46.911Z,100.00
2022-12-07T19:49:16.509Z,100.00
2022-12-07T19:51:50.313Z,100.00
2022-12-07T19:54:19.312Z,100.00
2022-12-07T19:56:47.459Z,100.00
2022-12-07T19:59:15.675Z,100.00
2022-12-07T20:01:43.644Z,100.00
2022-12-07T20:04:13.832Z,100.00
2022-12-07T20:06:40.722Z,100.00
2022-12-07T20:09:07.583Z,100.00
2022-12-07T20:11:54.258Z,100.00
2022-12-07T20:14:24.537Z,100.00
2022-12-07T20:16:52.096Z,100.00
2022-12-07T20:19:19.534Z,100.00
2022-12-07T20:21:47.208Z,100.00
2022-12-07T20:24:17.563Z,100.00
2022-12-07T20:26:45.906Z,100.00
2022-12-07T20:29:18.387Z,100.00
2022-12-07T20:31:47.465Z,100.00
2022-12-07T20:34:15.209Z,100.00
2022-12-07T20:36:42.087Z,100.00
2022-12-07T20:39:10.256Z,100.00
2022-12-07T20:41:55.639Z,100.00
2022-12-07T20:44:22.440Z,100.00
2022-12-07T20:46:49.843Z,100.00
2022-12-07T20:49:17.319Z,100.00
2022-12-07T20:51:46.370Z,100.00
2022-12-07T20:54:14.181Z,100.00
2022-12-07T20:56:41.528Z,100.00
2022-12-07T20:59:12.677Z,100.00
2022-12-07T21:01:40.143Z,100.00
2022-12-07T21:04:07.097Z,100.00
2022-12-07T21:06:34.040Z,100.00
2022-12-07T21:09:01.641Z,100.00
2022-12-07T21:11:30.715Z,100.00
2022-12-07T21:13:58.306Z,100.00
2022-12-07T21:16:29.095Z,100.00
2022-12-07T21:18:58.102Z,100.00
2022-12-07T21:21:25.267Z,100.00
2022-12-07T21:23:58.393Z,100.00
2022-12-07T21:26:29.727Z,100.00
2022-12-07T21:28:57.168Z,100.00
2022-12-07T21:31:24.280Z,100.00
2022-12-07T21:33:51.412Z,100.00
2022-12-07T21:36:21.267Z,100.00
2022-12-07T21:38:49.054Z,100.00
2022-12-07T21:41:22.645Z,100.00
2022-12-07T21:43:50.948Z,100.00
2022-12-07T21:46:21.342Z,100.00
2022-12-07T21:48:53.217Z,100.00
2022-12-07T21:51:21.685Z,100.00
2022-12-07T21:53:49.480Z,100.00
2022-12-07T21:56:25.702Z,100.00
2022-12-07T21:58:54.021Z,100.00
2022-12-07T22:01:25.343Z,100.00
2022-12-07T22:03:53.063Z,100.00
2022-12-07T22:06:22.881Z,100.00
2022-12-07T22:08:51.173Z,100.00
2022-12-07T22:11:19.496Z,100.00
2022-12-07T22:14:10.373Z,100.00
2022-12-07T22:16:39.330Z,100.00
2022-12-07T22:19:08.309Z,100.00
2022-12-07T22:21:35.681Z,100.00
2022-12-07T22:24:03.522Z,100.00
2022-12-07T22:26:30.789Z,100.00
2022-12-07T22:28:57.943Z,100.00
2022-12-07T22:31:25.326Z,100.00
2022-12-07T22:33:52.278Z,100.00
2022-12-07T22:36:19.457Z,100.00
2022-12-07T22:38:47.184Z,100.00
2022-12-07T22:41:19.690Z,100.00
2022-12-07T22:43:46.503Z,100.00
2022-12-07T22:46:13.351Z,100.00
2022-12-07T22:48:40.197Z,100.00
2022-12-07T22:51:07.097Z,100.00
2022-12-07T22:53:33.964Z,100.00
2022-12-07T22:56:03.937Z,100.00
2022-12-07T22:58:30.705Z,100.00
2022-12-07T23:00:57.565Z,100.00
2022-12-07T23:03:24.409Z,100.00
2022-12-07T23:05:52.411Z,100.00
2022-12-07T23:08:19.290Z,100.00
2022-12-07T23:10:48.390Z,100.00
2022-12-07T23:13:33.536Z,100.00
2022-12-07T23:16:01.757Z,100.00
2022-12-07T23:18:28.663Z,100.00
2022-12-07T23:20:57.150Z,100.00
2022-12-07T23:23:24.294Z,100.00
2022-12-07T23:25:51.320Z,100.00
2022-12-07T23:28:18.247Z,100.00
2022-12-07T23:30:45.619Z,100.00
2022-12-07T23:33:12.484Z,100.00
2022-12-07T23:35:39.332Z,100.00
2022-12-07T23:38:06.153Z,100.00
2022-12-07T23:40:35.160Z,100.00
2022-12-07T23:43:02.005Z,100.00
2022-12-07T23:45:29.113Z,100.00
2022-12-07T23:47:55.936Z,100.00
2022-12-07T23:50:24.261Z,100.00
2022-12-07T23:52:51.070Z,100.00
2022-12-07T23:55:18.031Z,100.00
2022-12-07T23:57:44.869Z,100.00
